Ευχαριστούμε που συμβάλλετε στη διατήρηση της σελίδας μας.

Thank you for your donations, it really helps to maintain the page.


Στατιστικά Καιρού & Άλλα..









Δείκτης Πυρκαγιάς (FWI)

Καστελόκαμπος Ρίον more information Kastelokampos Rion


Κάμερα Ρομανού more information Romanos Cam


Ραντάρ Κεραυνών more information blitzortung!


Ραντάρ Βροχής more information rain snow radar


Επισκεφθείτε άλλες ιστοσελίδες καιρού μας:

Meteopatras.Eu in
Euweather NetworkMeteopatras.Eu in Euweather Network

Weather CloudWeather Cloud

PWS WeatherPWS Weather

Awekas NetWeather data from station Patra-Ketx

WunderGroundWeather data from station Patra-Ketx




Ιδιοκτησία και Επίβλεψη : Μουλάς Αντρέας

 Πάτρα, Ελλάδα - Γ.Πλάτος : 38°14'21" Β - Γ.Μήκος : 21°45'5" Α - Υψόμετρο : 56μ

Κοντινές Αναφορές METAR

   
LGRX - Araxos
Ενημερώθηκε: 21-04-2019 18:50
Κυρίως Αίθριος  
Κυρίως Αίθριος  
   Άνεμος: ποικίλλει 5.6 km/h
Άνεμος: ποικίλλει 5.6 km/h
Θερμοκρασία: 16°C
Σημείο Δρόσου: 12°C
Υγρασία: 77%
Βαρόμετρο: 1022 hPa
Σύννεφα: Κυρίως Αίθριος
Ορατότητα: More than 10 km
Λεπτομέρειες Σύννεφου: Κυρίως Αίθριος 2000 ft
LGRX 211550Z VRB03KT 9999 FEW020 16/12 Q1022
LGAD - Andravida
Ενημερώθηκε: 21-04-2019 18:50
Μερικώς Νεφελώδης  
Μερικώς Νεφελώδης  
   Άνεμος: Δύση 11.1 km/h
Άνεμος: Δύση 11.1 km/h
Θερμοκρασία: 16°C
Σημείο Δρόσου: 11°C
Υγρασία: 72%
Βαρόμετρο: 1022 hPa
Σύννεφα: Μερικώς Νεφελώδης
Ορατότητα: More than 10 km
Λεπτομέρειες Σύννεφου: Κυρίως Αίθριος 2000 ft,
Μερικώς Νεφελώδης 8000 ft
LGAD 211550Z 27006KT 9999 FEW020 SCT080 16/11 Q1022
LGZA - Zakinthos
Ενημερώθηκε: 21-04-2019 18:50
Κυρίως Συννεφιά  
Κυρίως Συννεφιά  
   Άνεμος: Άπνοια
Άνεμος: Άπνοια
Θερμοκρασία: 17°C
Σημείο Δρόσου: 11°C
Υγρασία: 68%
Βαρόμετρο: 1022 hPa
Σύννεφα: Κυρίως Συννεφιά
Ορατότητα: More than 10 km
Λεπτομέρειες Σύννεφου: Κυρίως Αίθριος 2000 ft,
Κυρίως Συννεφιά 7000 ft
LGZA 211550Z 00000KT 9999 FEW020 BKN070 17/11 Q1022
LGKF - Kefallinia
Ενημερώθηκε: 21-04-2019 18:50
Κυρίως Συννεφιά  
Κυρίως Συννεφιά  
   Άνεμος: Άπνοια
Άνεμος: Άπνοια
Θερμοκρασία: 16°C
Σημείο Δρόσου: 13°C
Υγρασία: 83%
Βαρόμετρο: 1023 hPa
Σύννεφα: Κυρίως Συννεφιά
Ορατότητα: More than 10 km
Λεπτομέρειες Σύννεφου: Κυρίως Αίθριος 1500 ft,
Μερικώς Νεφελώδης 2000 ft,
Κυρίως Συννεφιά 7000 ft
LGKF 211550Z 00000KT 9999 FEW015 SCT020 BKN070 16/13 Q1023
LGPZ - Preveza
Ενημερώθηκε: 21-04-2019 18:50
Κυρίως Αίθριος  
Κυρίως Αίθριος  
   Άνεμος: Δύση 16.7 km/h
Άνεμος: Δύση 16.7 km/h
Θερμοκρασία: 16°C
Σημείο Δρόσου: 11°C
Υγρασία: 72%
Βαρόμετρο: 1023 hPa
Σύννεφα: Κυρίως Αίθριος
Ορατότητα: More than 10 km
Λεπτομέρειες Σύννεφου: Κυρίως Αίθριος 2500 ft
LGPZ 211550Z 26009KT 9999 FEW025 16/11 Q1023
LGKL - Kalamata
Ενημερώθηκε: 21-04-2019 18:50
Κυρίως Συννεφιά  
Κυρίως Συννεφιά  
   Άνεμος: ποικίλλει Άπνοια
Άνεμος: ποικίλλει Άπνοια
Θερμοκρασία: 15°C
Σημείο Δρόσου: 7°C
Υγρασία: 59%
Βαρόμετρο: 1023 hPa
Σύννεφα: Κυρίως Συννεφιά
Ορατότητα: More than 10 km
Λεπτομέρειες Σύννεφου: Κυρίως Συννεφιά 3000 ft,
Μερικώς Νεφελώδης 8000 ft
LGKL 211550Z /////KT 9999 BKN030 SCT080 15/07 Q1023
LGKR - Kerkyra
Ενημερώθηκε: 21-04-2019 18:50
Ελαφρύ ψιλόβροχο, Κυρίως Συννεφιά  
Ελαφρύ ψιλόβροχο, Κυρίως Συννεφιά  
   Άνεμος: ΝΑ 7.4 km/h
Άνεμος: ΝΑ 7.4 km/h
Θερμοκρασία: 15°C
Σημείο Δρόσου: 13°C
Υγρασία: 88%
Βαρόμετρο: 1022 hPa
Σύννεφα: Κυρίως Συννεφιά
Ορατότητα: 7 km
Λεπτομέρειες Σύννεφου: Μερικώς Νεφελώδης 700 ft,
Μερικώς Νεφελώδης 1800 ft,
Κυρίως Συννεφιά 3000 ft
LGKR 211550Z 13004KT 7000 -DZ SCT007 SCT018 BKN030 15/13 Q1022 TEMPO 5000 RA
LGIO - Iwannina
Ενημερώθηκε: 21-04-2019 18:50
Μερικώς Νεφελώδης  
Μερικώς Νεφελώδης  
   Άνεμος: ποικίλλει Άπνοια
Άνεμος: ποικίλλει Άπνοια
Θερμοκρασία: 17°C
Σημείο Δρόσου: 8°C
Υγρασία: 56%
Βαρόμετρο: 1021 hPa
Σύννεφα: Μερικώς Νεφελώδης
Ορατότητα: More than 10 km
Λεπτομέρειες Σύννεφου: Μερικώς Νεφελώδης 3000 ft
LGIO 211550Z /////KT 9999 SCT030 17/08 Q1021
LGPZ - Leykada
Ενημερώθηκε: 21-04-2019 18:50
Κυρίως Αίθριος  
Κυρίως Αίθριος  
   Άνεμος: Δύση 16.7 km/h
Άνεμος: Δύση 16.7 km/h
Θερμοκρασία: 16°C
Σημείο Δρόσου: 11°C
Υγρασία: 72%
Βαρόμετρο: 1023 hPa
Σύννεφα: Κυρίως Αίθριος
Ορατότητα: More than 10 km
Λεπτομέρειες Σύννεφου: Κυρίως Αίθριος 2500 ft
LGPZ 211550Z 26009KT 9999 FEW025 16/11 Q1023
LGEL - Elefsina
Ενημερώθηκε: 21-04-2019 18:50
Κυρίως Αίθριος  
Κυρίως Αίθριος  
   Άνεμος: ΝΝΔ 25.9 km/h
Άνεμος: ΝΝΔ 25.9 km/h
Θερμοκρασία: 15°C
Σημείο Δρόσου: 13°C
Υγρασία: 88%
Βαρόμετρο: 1021 hPa
Σύννεφα: Κυρίως Αίθριος
Ορατότητα: More than 10 km
Λεπτομέρειες Σύννεφου: Κυρίως Αίθριος 2500 ft
LGEL 211550Z 21014KT 9999 FEW025 15/13 Q1021
LGKC - Kythira
Ενημερώθηκε: 21-04-2019 18:50
Αίθριος  
Αίθριος  
   Άνεμος: Ανατολή 9.3 km/h
Άνεμος: Ανατολή 9.3 km/h
Θερμοκρασία: 12°C
Σημείο Δρόσου: 6°C
Υγρασία: 67%
Βαρόμετρο: 1023 hPa
Ορατότητα: More than 10 km
Λεπτομέρειες Σύννεφου: Αίθριος
LGKC 211550Z 09005KT CAVOK 12/06 Q1023
LGIR - Hraklio
Ενημερώθηκε: 21-04-2019 18:50
Κυρίως Συννεφιά  
Κυρίως Συννεφιά  
   Άνεμος: ΒΒΔ 20.4 km/h
Άνεμος: ΒΒΔ 20.4 km/h
Θερμοκρασία: 15°C
Σημείο Δρόσου: 7°C
Υγρασία: 59%
Βαρόμετρο: 1022 hPa
Σύννεφα: Κυρίως Συννεφιά
Ορατότητα: More than 10 km
Λεπτομέρειες Σύννεφου: Κυρίως Αίθριος 2000 ft,
Κυρίως Συννεφιά 2500 ft
LGIR 211550Z 33011KT 9999 FEW020 BKN025 15/07 Q1022 NOSIG

Script developed by  Saratoga-weather.org Προσαρμοσμένος για το πρότυπο του  Weerstation Leuven

Μπορείτε να βρείτε πληροφορίες καιρού μας και σε:

European Weather Network

WeatherCloud

Weather Underground

Δύκτιο Σταθμών Ελλάδας

AWEKAS

HAMweather, WeatherForYou, PWS Weather

MeteoPatras.Eu